sensor_id;sensor_type;location;lat;lon;timestamp;P1;durP1;ratioP1;P2;durP2;ratioP2
14187;SDS011;7175;51.978;5.330;2023-07-13T00:01:13;25.50;;;23.60;;
14187;SDS011;7175;51.978;5.330;2023-07-13T00:03:41;25.80;;;23.90;;
14187;SDS011;7175;51.978;5.330;2023-07-13T00:06:10;25.90;;;24.00;;
14187;SDS011;7175;51.978;5.330;2023-07-13T00:08:39;25.87;;;23.97;;
14187;SDS011;7175;51.978;5.330;2023-07-13T00:11:09;26.17;;;24.27;;
14187;SDS011;7175;51.978;5.330;2023-07-13T00:13:38;26.30;;;24.40;;
14187;SDS011;7175;51.978;5.330;2023-07-13T00:16:07;25.53;;;23.63;;
14187;SDS011;7175;51.978;5.330;2023-07-13T00:18:36;26.17;;;24.27;;
14187;SDS011;7175;51.978;5.330;2023-07-13T00:21:06;26.67;;;24.77;;
14187;SDS011;7175;51.978;5.330;2023-07-13T00:23:38;26.83;;;24.93;;
14187;SDS011;7175;51.978;5.330;2023-07-13T00:26:09;26.93;;;25.03;;
14187;SDS011;7175;51.978;5.330;2023-07-13T00:28:40;27.23;;;25.33;;
14187;SDS011;7175;51.978;5.330;2023-07-13T00:31:08;26.97;;;25.07;;
14187;SDS011;7175;51.978;5.330;2023-07-13T00:33:41;26.97;;;25.07;;
14187;SDS011;7175;51.978;5.330;2023-07-13T00:36:09;26.63;;;24.73;;
14187;SDS011;7175;51.978;5.330;2023-07-13T00:38:38;27.00;;;25.10;;
14187;SDS011;7175;51.978;5.330;2023-07-13T00:41:07;28.03;;;26.03;;
14187;SDS011;7175;51.978;5.330;2023-07-13T00:43:37;28.30;;;26.30;;
14187;SDS011;7175;51.978;5.330;2023-07-13T00:46:23;28.63;;;26.63;;
14187;SDS011;7175;51.978;5.330;2023-07-13T00:48:53;29.87;;;27.87;;
14187;SDS011;7175;51.978;5.330;2023-07-13T00:51:26;29.80;;;27.70;;
14187;SDS011;7175;51.978;5.330;2023-07-13T00:53:59;30.23;;;28.13;;
14187;SDS011;7175;51.978;5.330;2023-07-13T00:56:31;29.07;;;27.07;;
14187;SDS011;7175;51.978;5.330;2023-07-13T00:59:03;29.73;;;27.63;;
14187;SDS011;7175;51.978;5.330;2023-07-13T01:01:35;29.30;;;27.20;;
14187;SDS011;7175;51.978;5.330;2023-07-13T01:04:03;30.67;;;28.57;;
14187;SDS011;7175;51.978;5.330;2023-07-13T01:06:34;31.10;;;28.97;;
14187;SDS011;7175;51.978;5.330;2023-07-13T01:09:03;30.53;;;28.43;;
14187;SDS011;7175;51.978;5.330;2023-07-13T01:11:34;30.43;;;28.33;;
14187;SDS011;7175;51.978;5.330;2023-07-13T01:14:04;31.60;;;29.40;;
14187;SDS011;7175;51.978;5.330;2023-07-13T01:16:33;30.80;;;28.70;;
14187;SDS011;7175;51.978;5.330;2023-07-13T01:19:03;32.13;;;29.93;;
14187;SDS011;7175;51.978;5.330;2023-07-13T01:21:51;33.83;;;31.53;;
14187;SDS011;7175;51.978;5.330;2023-07-13T01:24:20;33.33;;;31.13;;
14187;SDS011;7175;51.978;5.330;2023-07-13T01:26:48;33.60;;;31.30;;
14187;SDS011;7175;51.978;5.330;2023-07-13T01:29:16;35.57;;;33.23;;
14187;SDS011;7175;51.978;5.330;2023-07-13T01:31:44;35.57;;;33.17;;
14187;SDS011;7175;51.978;5.330;2023-07-13T01:34:13;35.53;;;33.13;;
14187;SDS011;7175;51.978;5.330;2023-07-13T01:36:41;35.67;;;33.27;;
14187;SDS011;7175;51.978;5.330;2023-07-13T01:39:15;38.43;;;35.93;;
14187;SDS011;7175;51.978;5.330;2023-07-13T01:41:43;37.37;;;34.87;;
14187;SDS011;7175;51.978;5.330;2023-07-13T01:44:13;37.63;;;35.13;;
14187;SDS011;7175;51.978;5.330;2023-07-13T01:46:41;39.63;;;37.03;;
14187;SDS011;7175;51.978;5.330;2023-07-13T01:49:12;41.87;;;39.17;;
14187;SDS011;7175;51.978;5.330;2023-07-13T01:51:41;42.23;;;39.53;;
14187;SDS011;7175;51.978;5.330;2023-07-13T01:54:10;43.87;;;41.07;;
14187;SDS011;7175;51.978;5.330;2023-07-13T01:56:42;42.27;;;39.57;;
14187;SDS011;7175;51.978;5.330;2023-07-13T01:59:12;43.17;;;40.47;;
14187;SDS011;7175;51.978;5.330;2023-07-13T02:01:40;43.17;;;40.37;;
14187;SDS011;7175;51.978;5.330;2023-07-13T02:04:08;49.70;;;46.60;;
14187;SDS011;7175;51.978;5.330;2023-07-13T02:06:37;51.03;;;47.93;;
14187;SDS011;7175;51.978;5.330;2023-07-13T02:09:05;52.13;;;48.93;;
14187;SDS011;7175;51.978;5.330;2023-07-13T02:11:34;52.80;;;49.60;;
14187;SDS011;7175;51.978;5.330;2023-07-13T02:14:03;54.60;;;51.30;;
14187;SDS011;7175;51.978;5.330;2023-07-13T02:16:33;57.53;;;54.13;;
14187;SDS011;7175;51.978;5.330;2023-07-13T02:19:03;60.50;;;57.00;;
14187;SDS011;7175;51.978;5.330;2023-07-13T02:21:34;59.30;;;55.80;;
14187;SDS011;7175;51.978;5.330;2023-07-13T02:24:02;64.97;;;61.27;;
14187;SDS011;7175;51.978;5.330;2023-07-13T02:26:31;68.33;;;64.43;;
14187;SDS011;7175;51.978;5.330;2023-07-13T02:29:04;74.23;;;70.13;;
14187;SDS011;7175;51.978;5.330;2023-07-13T02:31:35;74.47;;;70.37;;
14187;SDS011;7175;51.978;5.330;2023-07-13T02:34:06;80.67;;;76.27;;
14187;SDS011;7175;51.978;5.330;2023-07-13T02:36:35;83.40;;;78.90;;
14187;SDS011;7175;51.978;5.330;2023-07-13T02:39:04;83.40;;;78.90;;
14187;SDS011;7175;51.978;5.330;2023-07-13T02:41:32;85.50;;;80.90;;
14187;SDS011;7175;51.978;5.330;2023-07-13T02:44:02;92.57;;;87.63;;
14187;SDS011;7175;51.978;5.330;2023-07-13T02:46:35;92.90;;;87.90;;
14187;SDS011;7175;51.978;5.330;2023-07-13T02:49:04;97.00;;;91.80;;
14187;SDS011;7175;51.978;5.330;2023-07-13T02:51:33;96.57;;;91.47;;
14187;SDS011;7175;51.978;5.330;2023-07-13T02:54:01;99.90;;;94.50;;
14187;SDS011;7175;51.978;5.330;2023-07-13T02:56:32;99.30;;;94.00;;
14187;SDS011;7175;51.978;5.330;2023-07-13T02:59:00;99.43;;;94.07;;
14187;SDS011;7175;51.978;5.330;2023-07-13T03:01:31;99.10;;;93.80;;
14187;SDS011;7175;51.978;5.330;2023-07-13T03:04:02;106.10;;;100.40;;
14187;SDS011;7175;51.978;5.330;2023-07-13T03:06:31;103.30;;;97.70;;
14187;SDS011;7175;51.978;5.330;2023-07-13T03:09:01;106.80;;;101.00;;
14187;SDS011;7175;51.978;5.330;2023-07-13T03:11:30;109.50;;;103.50;;
14187;SDS011;7175;51.978;5.330;2023-07-13T03:13:59;112.03;;;106.00;;
14187;SDS011;7175;51.978;5.330;2023-07-13T03:16:29;118.27;;;111.87;;
14187;SDS011;7175;51.978;5.330;2023-07-13T03:18:57;117.80;;;111.40;;
14187;SDS011;7175;51.978;5.330;2023-07-13T03:21:28;122.90;;;116.40;;
14187;SDS011;7175;51.978;5.330;2023-07-13T03:23:57;121.17;;;114.77;;
14187;SDS011;7175;51.978;5.330;2023-07-13T03:26:26;121.30;;;114.80;;
14187;SDS011;7175;51.978;5.330;2023-07-13T03:28:55;124.83;;;118.03;;
14187;SDS011;7175;51.978;5.330;2023-07-13T03:31:24;125.10;;;118.40;;
14187;SDS011;7175;51.978;5.330;2023-07-13T03:33:55;125.10;;;118.40;;
14187;SDS011;7175;51.978;5.330;2023-07-13T03:36:24;125.80;;;119.10;;
14187;SDS011;7175;51.978;5.330;2023-07-13T03:38:56;126.43;;;119.53;;
14187;SDS011;7175;51.978;5.330;2023-07-13T03:41:26;127.77;;;120.77;;
14187;SDS011;7175;51.978;5.330;2023-07-13T03:43:54;130.07;;;122.87;;
14187;SDS011;7175;51.978;5.330;2023-07-13T03:46:23;126.77;;;119.70;;
14187;SDS011;7175;51.978;5.330;2023-07-13T03:48:57;128.17;;;120.93;;
14187;SDS011;7175;51.978;5.330;2023-07-13T03:51:27;129.70;;;122.30;;
14187;SDS011;7175;51.978;5.330;2023-07-13T03:53:55;127.20;;;119.80;;
14187;SDS011;7175;51.978;5.330;2023-07-13T03:56:24;131.80;;;124.10;;
14187;SDS011;7175;51.978;5.330;2023-07-13T03:58:53;131.70;;;123.77;;
14187;SDS011;7175;51.978;5.330;2023-07-13T04:01:22;132.30;;;124.30;;
14187;SDS011;7175;51.978;5.330;2023-07-13T04:03:52;127.60;;;119.90;;
14187;SDS011;7175;51.978;5.330;2023-07-13T04:06:22;130.00;;;122.20;;
14187;SDS011;7175;51.978;5.330;2023-07-13T04:08:54;129.57;;;121.77;;
14187;SDS011;7175;51.978;5.330;2023-07-13T04:11:24;128.57;;;120.57;;
14187;SDS011;7175;51.978;5.330;2023-07-13T04:13:54;128.20;;;120.20;;
14187;SDS011;7175;51.978;5.330;2023-07-13T04:16:23;128.43;;;120.33;;
14187;SDS011;7175;51.978;5.330;2023-07-13T04:18:52;132.60;;;124.37;;
14187;SDS011;7175;51.978;5.330;2023-07-13T04:21:28;131.60;;;123.40;;
14187;SDS011;7175;51.978;5.330;2023-07-13T04:23:58;131.90;;;123.40;;
14187;SDS011;7175;51.978;5.330;2023-07-13T04:26:27;128.27;;;119.97;;
14187;SDS011;7175;51.978;5.330;2023-07-13T04:28:55;131.77;;;123.33;;
14187;SDS011;7175;51.978;5.330;2023-07-13T04:31:24;133.17;;;124.47;;
14187;SDS011;7175;51.978;5.330;2023-07-13T04:33:54;130.20;;;121.70;;
14187;SDS011;7175;51.978;5.330;2023-07-13T04:36:23;130.40;;;121.80;;
14187;SDS011;7175;51.978;5.330;2023-07-13T04:38:56;130.33;;;121.87;;
14187;SDS011;7175;51.978;5.330;2023-07-13T04:41:24;129.67;;;121.33;;
14187;SDS011;7175;51.978;5.330;2023-07-13T04:43:53;130.40;;;122.00;;
14187;SDS011;7175;51.978;5.330;2023-07-13T04:46:23;131.20;;;122.70;;
14187;SDS011;7175;51.978;5.330;2023-07-13T04:48:54;129.40;;;120.97;;
14187;SDS011;7175;51.978;5.330;2023-07-13T04:51:25;127.10;;;118.80;;
14187;SDS011;7175;51.978;5.330;2023-07-13T04:53:55;127.73;;;119.33;;
14187;SDS011;7175;51.978;5.330;2023-07-13T04:56:30;126.70;;;118.20;;
14187;SDS011;7175;51.978;5.330;2023-07-13T04:58:58;127.97;;;119.47;;
14187;SDS011;7175;51.978;5.330;2023-07-13T05:01:27;128.37;;;119.70;;
14187;SDS011;7175;51.978;5.330;2023-07-13T05:03:56;130.43;;;121.93;;
14187;SDS011;7175;51.978;5.330;2023-07-13T05:06:28;131.27;;;122.67;;
14187;SDS011;7175;51.978;5.330;2023-07-13T05:09:00;130.00;;;121.40;;
14187;SDS011;7175;51.978;5.330;2023-07-13T05:11:29;130.67;;;122.07;;
14187;SDS011;7175;51.978;5.330;2023-07-13T05:13:58;130.90;;;122.30;;
14187;SDS011;7175;51.978;5.330;2023-07-13T05:16:30;127.30;;;119.00;;
14187;SDS011;7175;51.978;5.330;2023-07-13T05:19:02;126.30;;;117.90;;
14187;SDS011;7175;51.978;5.330;2023-07-13T05:21:31;128.33;;;119.87;;
14187;SDS011;7175;51.978;5.330;2023-07-13T05:24:01;132.37;;;123.77;;
14187;SDS011;7175;51.978;5.330;2023-07-13T05:26:44;131.07;;;122.67;;
14187;SDS011;7175;51.978;5.330;2023-07-13T05:29:13;130.03;;;121.63;;
14187;SDS011;7175;51.978;5.330;2023-07-13T05:31:42;126.57;;;118.50;;
14187;SDS011;7175;51.978;5.330;2023-07-13T05:34:11;124.87;;;117.17;;
14187;SDS011;7175;51.978;5.330;2023-07-13T05:36:39;119.90;;;112.60;;
14187;SDS011;7175;51.978;5.330;2023-07-13T05:39:09;115.37;;;108.47;;
14187;SDS011;7175;51.978;5.330;2023-07-13T05:41:38;114.97;;;108.07;;
14187;SDS011;7175;51.978;5.330;2023-07-13T05:44:06;110.63;;;104.17;;
14187;SDS011;7175;51.978;5.330;2023-07-13T05:46:34;107.67;;;101.47;;
14187;SDS011;7175;51.978;5.330;2023-07-13T05:49:04;103.10;;;97.10;;
14187;SDS011;7175;51.978;5.330;2023-07-13T05:51:32;99.70;;;93.80;;
14187;SDS011;7175;51.978;5.330;2023-07-13T05:54:01;97.97;;;92.47;;
14187;SDS011;7175;51.978;5.330;2023-07-13T05:56:32;90.60;;;85.30;;
14187;SDS011;7175;51.978;5.330;2023-07-13T05:59:00;87.60;;;82.43;;
14187;SDS011;7175;51.978;5.330;2023-07-13T06:01:30;85.37;;;80.27;;
14187;SDS011;7175;51.978;5.330;2023-07-13T06:04:03;80.43;;;75.67;;
14187;SDS011;7175;51.978;5.330;2023-07-13T06:06:32;79.13;;;74.33;;
14187;SDS011;7175;51.978;5.330;2023-07-13T06:09:01;81.30;;;76.50;;
14187;SDS011;7175;51.978;5.330;2023-07-13T06:11:29;71.90;;;67.50;;
14187;SDS011;7175;51.978;5.330;2023-07-13T06:14:01;68.50;;;64.30;;
14187;SDS011;7175;51.978;5.330;2023-07-13T06:16:30;55.67;;;52.07;;
14187;SDS011;7175;51.978;5.330;2023-07-13T06:19:00;52.67;;;49.17;;
14187;SDS011;7175;51.978;5.330;2023-07-13T06:21:28;50.03;;;46.73;;
14187;SDS011;7175;51.978;5.330;2023-07-13T06:23:57;47.43;;;44.33;;
14187;SDS011;7175;51.978;5.330;2023-07-13T06:26:25;46.20;;;43.10;;
14187;SDS011;7175;51.978;5.330;2023-07-13T06:28:55;46.20;;;43.10;;
14187;SDS011;7175;51.978;5.330;2023-07-13T06:31:24;44.33;;;41.33;;
14187;SDS011;7175;51.978;5.330;2023-07-13T06:33:52;41.50;;;38.60;;
14187;SDS011;7175;51.978;5.330;2023-07-13T06:36:23;43.13;;;40.13;;
14187;SDS011;7175;51.978;5.330;2023-07-13T06:38:51;39.77;;;36.97;;
14187;SDS011;7175;51.978;5.330;2023-07-13T06:41:22;37.80;;;35.10;;
14187;SDS011;7175;51.978;5.330;2023-07-13T06:43:52;38.50;;;35.80;;
14187;SDS011;7175;51.978;5.330;2023-07-13T06:46:22;36.50;;;33.90;;
14187;SDS011;7175;51.978;5.330;2023-07-13T06:48:50;35.80;;;33.20;;
14187;SDS011;7175;51.978;5.330;2023-07-13T06:53:46;35.90;;;33.40;;
14187;SDS011;7175;51.978;5.330;2023-07-13T06:56:14;42.07;;;39.27;;
14187;SDS011;7175;51.978;5.330;2023-07-13T06:58:42;39.77;;;37.17;;
14187;SDS011;7175;51.978;5.330;2023-07-13T07:01:10;39.50;;;36.80;;
14187;SDS011;7175;51.978;5.330;2023-07-13T07:03:40;35.50;;;32.90;;
14187;SDS011;7175;51.978;5.330;2023-07-13T07:06:12;33.90;;;31.40;;
14187;SDS011;7175;51.978;5.330;2023-07-13T07:08:42;32.83;;;30.33;;
14187;SDS011;7175;51.978;5.330;2023-07-13T07:11:11;31.53;;;29.17;;
14187;SDS011;7175;51.978;5.330;2023-07-13T07:13:41;31.10;;;28.70;;
14187;SDS011;7175;51.978;5.330;2023-07-13T07:16:09;31.27;;;28.87;;
14187;SDS011;7175;51.978;5.330;2023-07-13T07:18:37;30.37;;;28.07;;
14187;SDS011;7175;51.978;5.330;2023-07-13T07:21:07;29.37;;;27.13;;
14187;SDS011;7175;51.978;5.330;2023-07-13T07:23:35;29.00;;;26.80;;
14187;SDS011;7175;51.978;5.330;2023-07-13T07:26:03;28.33;;;26.13;;
14187;SDS011;7175;51.978;5.330;2023-07-13T07:28:31;27.90;;;25.80;;
14187;SDS011;7175;51.978;5.330;2023-07-13T07:31:02;25.00;;;23.00;;
14187;SDS011;7175;51.978;5.330;2023-07-13T07:33:33;25.50;;;23.40;;
14187;SDS011;7175;51.978;5.330;2023-07-13T07:36:01;25.37;;;23.27;;
14187;SDS011;7175;51.978;5.330;2023-07-13T07:38:34;25.50;;;23.40;;
14187;SDS011;7175;51.978;5.330;2023-07-13T07:41:02;25.23;;;23.17;;
14187;SDS011;7175;51.978;5.330;2023-07-13T07:43:34;24.70;;;22.70;;
14187;SDS011;7175;51.978;5.330;2023-07-13T07:46:02;24.07;;;22.07;;
14187;SDS011;7175;51.978;5.330;2023-07-13T07:48:31;24.40;;;22.40;;
14187;SDS011;7175;51.978;5.330;2023-07-13T07:50:59;24.77;;;22.77;;
14187;SDS011;7175;51.978;5.330;2023-07-13T07:53:26;24.47;;;22.47;;
14187;SDS011;7175;51.978;5.330;2023-07-13T07:56:01;25.47;;;23.47;;
14187;SDS011;7175;51.978;5.330;2023-07-13T07:58:36;25.97;;;23.93;;
14187;SDS011;7175;51.978;5.330;2023-07-13T08:01:10;25.73;;;23.73;;
14187;SDS011;7175;51.978;5.330;2023-07-13T08:03:41;24.70;;;22.70;;
14187;SDS011;7175;51.978;5.330;2023-07-13T08:06:13;25.03;;;23.03;;
14187;SDS011;7175;51.978;5.330;2023-07-13T08:09:04;24.77;;;22.77;;
14187;SDS011;7175;51.978;5.330;2023-07-13T08:11:34;24.50;;;22.60;;
14187;SDS011;7175;51.978;5.330;2023-07-13T08:14:05;23.73;;;21.83;;
14187;SDS011;7175;51.978;5.330;2023-07-13T08:16:33;23.53;;;21.63;;
14187;SDS011;7175;51.978;5.330;2023-07-13T08:19:03;22.90;;;21.03;;
14187;SDS011;7175;51.978;5.330;2023-07-13T08:21:34;23.40;;;21.50;;
14187;SDS011;7175;51.978;5.330;2023-07-13T08:24:07;23.07;;;21.27;;
14187;SDS011;7175;51.978;5.330;2023-07-13T08:26:38;23.83;;;21.93;;
14187;SDS011;7175;51.978;5.330;2023-07-13T08:29:07;23.60;;;21.70;;
14187;SDS011;7175;51.978;5.330;2023-07-13T08:31:37;23.17;;;21.37;;
14187;SDS011;7175;51.978;5.330;2023-07-13T08:34:06;23.33;;;21.47;;
14187;SDS011;7175;51.978;5.330;2023-07-13T08:36:35;23.80;;;21.90;;
14187;SDS011;7175;51.978;5.330;2023-07-13T08:39:08;24.50;;;22.60;;
14187;SDS011;7175;51.978;5.330;2023-07-13T08:41:41;24.90;;;22.90;;
14187;SDS011;7175;51.978;5.330;2023-07-13T08:44:15;25.60;;;23.60;;
14187;SDS011;7175;51.978;5.330;2023-07-13T08:46:50;25.80;;;23.80;;
14187;SDS011;7175;51.978;5.330;2023-07-13T08:49:22;26.00;;;24.00;;
14187;SDS011;7175;51.978;5.330;2023-07-13T08:51:53;25.63;;;23.63;;
14187;SDS011;7175;51.978;5.330;2023-07-13T08:54:29;26.80;;;24.70;;
14187;SDS011;7175;51.978;5.330;2023-07-13T08:57:09;28.17;;;26.07;;
14187;SDS011;7175;51.978;5.330;2023-07-13T08:59:41;28.70;;;26.57;;
14187;SDS011;7175;51.978;5.330;2023-07-13T09:02:20;29.80;;;27.60;;
14187;SDS011;7175;51.978;5.330;2023-07-13T09:04:56;29.30;;;27.10;;
14187;SDS011;7175;51.978;5.330;2023-07-13T09:07:34;28.60;;;26.40;;
14187;SDS011;7175;51.978;5.330;2023-07-13T09:10:17;30.00;;;27.70;;
14187;SDS011;7175;51.978;5.330;2023-07-13T09:12:55;29.70;;;27.50;;
14187;SDS011;7175;51.978;5.330;2023-07-13T09:15:35;25.83;;;23.83;;
14187;SDS011;7175;51.978;5.330;2023-07-13T09:18:10;24.97;;;23.00;;
14187;SDS011;7175;51.978;5.330;2023-07-13T09:21:02;25.20;;;23.20;;
14187;SDS011;7175;51.978;5.330;2023-07-13T09:23:34;25.07;;;23.10;;
14187;SDS011;7175;51.978;5.330;2023-07-13T09:26:04;24.37;;;22.47;;
14187;SDS011;7175;51.978;5.330;2023-07-13T09:28:42;23.73;;;21.83;;
14187;SDS011;7175;51.978;5.330;2023-07-13T09:31:13;23.47;;;21.57;;
14187;SDS011;7175;51.978;5.330;2023-07-13T09:33:45;22.87;;;20.97;;
14187;SDS011;7175;51.978;5.330;2023-07-13T09:36:18;21.37;;;19.67;;
14187;SDS011;7175;51.978;5.330;2023-07-13T09:38:49;22.60;;;20.77;;
14187;SDS011;7175;51.978;5.330;2023-07-13T09:41:27;21.87;;;20.17;;
14187;SDS011;7175;51.978;5.330;2023-07-13T09:44:10;21.73;;;20.03;;
14187;SDS011;7175;51.978;5.330;2023-07-13T09:46:43;22.47;;;20.57;;
14187;SDS011;7175;51.978;5.330;2023-07-13T09:49:13;22.03;;;20.23;;
14187;SDS011;7175;51.978;5.330;2023-07-13T09:51:42;22.00;;;20.10;;
14187;SDS011;7175;51.978;5.330;2023-07-13T09:54:17;21.83;;;20.03;;
14187;SDS011;7175;51.978;5.330;2023-07-13T09:56:47;22.10;;;20.30;;
14187;SDS011;7175;51.978;5.330;2023-07-13T09:59:24;22.73;;;20.83;;
14187;SDS011;7175;51.978;5.330;2023-07-13T10:01:57;22.47;;;20.67;;
14187;SDS011;7175;51.978;5.330;2023-07-13T10:04:27;22.17;;;20.37;;
14187;SDS011;7175;51.978;5.330;2023-07-13T10:07:07;21.47;;;19.77;;
14187;SDS011;7175;51.978;5.330;2023-07-13T10:09:55;21.80;;;20.10;;
14187;SDS011;7175;51.978;5.330;2023-07-13T10:12:28;22.43;;;20.63;;
14187;SDS011;7175;51.978;5.330;2023-07-13T10:15:07;22.63;;;20.83;;
14187;SDS011;7175;51.978;5.330;2023-07-13T10:17:50;23.40;;;21.50;;
14187;SDS011;7175;51.978;5.330;2023-07-13T10:20:19;23.20;;;21.30;;
14187;SDS011;7175;51.978;5.330;2023-07-13T10:22:50;23.30;;;21.40;;
14187;SDS011;7175;51.978;5.330;2023-07-13T10:25:22;22.97;;;21.07;;
14187;SDS011;7175;51.978;5.330;2023-07-13T10:27:54;23.93;;;22.03;;
14187;SDS011;7175;51.978;5.330;2023-07-13T10:30:30;23.13;;;21.30;;
14187;SDS011;7175;51.978;5.330;2023-07-13T10:33:02;24.80;;;22.90;;
14187;SDS011;7175;51.978;5.330;2023-07-13T10:35:37;23.37;;;21.47;;
14187;SDS011;7175;51.978;5.330;2023-07-13T10:38:10;24.57;;;22.57;;
14187;SDS011;7175;51.978;5.330;2023-07-13T10:40:41;27.13;;;25.00;;
14187;SDS011;7175;51.978;5.330;2023-07-13T10:43:16;26.53;;;24.43;;
14187;SDS011;7175;51.978;5.330;2023-07-13T10:45:51;24.23;;;22.33;;
14187;SDS011;7175;51.978;5.330;2023-07-13T10:48:21;23.53;;;21.63;;
14187;SDS011;7175;51.978;5.330;2023-07-13T10:50:51;24.03;;;22.03;;
14187;SDS011;7175;51.978;5.330;2023-07-13T10:53:27;23.90;;;21.90;;
14187;SDS011;7175;51.978;5.330;2023-07-13T10:56:03;22.20;;;20.40;;
14187;SDS011;7175;51.978;5.330;2023-07-13T10:58:35;22.73;;;20.83;;
14187;SDS011;7175;51.978;5.330;2023-07-13T11:01:09;22.57;;;20.67;;
14187;SDS011;7175;51.978;5.330;2023-07-13T11:03:46;22.43;;;20.63;;
14187;SDS011;7175;51.978;5.330;2023-07-13T11:06:28;21.77;;;20.07;;
14187;SDS011;7175;51.978;5.330;2023-07-13T11:09:07;23.00;;;21.10;;
14187;SDS011;7175;51.978;5.330;2023-07-13T11:11:47;21.70;;;20.00;;
14187;SDS011;7175;51.978;5.330;2023-07-13T11:14:26;21.77;;;19.97;;
14187;SDS011;7175;51.978;5.330;2023-07-13T11:16:58;21.23;;;19.43;;
14187;SDS011;7175;51.978;5.330;2023-07-13T11:19:47;21.37;;;19.57;;
14187;SDS011;7175;51.978;5.330;2023-07-13T11:22:24;21.47;;;19.67;;
14187;SDS011;7175;51.978;5.330;2023-07-13T11:24:57;21.10;;;19.40;;
14187;SDS011;7175;51.978;5.330;2023-07-13T11:27:35;21.30;;;19.50;;
14187;SDS011;7175;51.978;5.330;2023-07-13T11:30:24;21.20;;;19.40;;
14187;SDS011;7175;51.978;5.330;2023-07-13T11:33:13;20.97;;;19.17;;
14187;SDS011;7175;51.978;5.330;2023-07-13T11:35:46;21.17;;;19.37;;
14187;SDS011;7175;51.978;5.330;2023-07-13T11:38:23;21.00;;;19.20;;
14187;SDS011;7175;51.978;5.330;2023-07-13T11:41:00;20.47;;;18.77;;
14187;SDS011;7175;51.978;5.330;2023-07-13T11:43:36;20.40;;;18.70;;
14187;SDS011;7175;51.978;5.330;2023-07-13T11:46:13;21.00;;;19.20;;
14187;SDS011;7175;51.978;5.330;2023-07-13T11:48:53;20.30;;;18.60;;
14187;SDS011;7175;51.978;5.330;2023-07-13T11:51:25;20.60;;;18.90;;
14187;SDS011;7175;51.978;5.330;2023-07-13T11:53:59;21.03;;;19.23;;
14187;SDS011;7175;51.978;5.330;2023-07-13T11:56:31;20.67;;;18.97;;
14187;SDS011;7175;51.978;5.330;2023-07-13T11:59:03;21.17;;;19.47;;
14187;SDS011;7175;51.978;5.330;2023-07-13T12:01:35;20.90;;;19.20;;
14187;SDS011;7175;51.978;5.330;2023-07-13T12:04:25;20.67;;;18.97;;
14187;SDS011;7175;51.978;5.330;2023-07-13T12:07:03;20.77;;;19.07;;
14187;SDS011;7175;51.978;5.330;2023-07-13T12:09:35;21.07;;;19.37;;
14187;SDS011;7175;51.978;5.330;2023-07-13T12:12:10;20.80;;;19.10;;
14187;SDS011;7175;51.978;5.330;2023-07-13T12:14:40;20.70;;;19.00;;
14187;SDS011;7175;51.978;5.330;2023-07-13T12:17:09;21.17;;;19.37;;
14187;SDS011;7175;51.978;5.330;2023-07-13T12:19:43;20.77;;;18.97;;
14187;SDS011;7175;51.978;5.330;2023-07-13T12:22:13;20.53;;;18.83;;
14187;SDS011;7175;51.978;5.330;2023-07-13T12:24:47;21.30;;;19.50;;
14187;SDS011;7175;51.978;5.330;2023-07-13T12:27:18;20.57;;;18.87;;
14187;SDS011;7175;51.978;5.330;2023-07-13T12:29:51;20.83;;;19.03;;
14187;SDS011;7175;51.978;5.330;2023-07-13T12:32:26;20.70;;;19.00;;
14187;SDS011;7175;51.978;5.330;2023-07-13T12:35:06;20.47;;;18.70;;
14187;SDS011;7175;51.978;5.330;2023-07-13T12:37:47;20.80;;;19.00;;
14187;SDS011;7175;51.978;5.330;2023-07-13T12:40:19;20.20;;;18.50;;
14187;SDS011;7175;51.978;5.330;2023-07-13T12:42:54;20.53;;;18.80;;
14187;SDS011;7175;51.978;5.330;2023-07-13T12:45:24;21.27;;;19.47;;
14187;SDS011;7175;51.978;5.330;2023-07-13T12:47:56;20.70;;;18.90;;
14187;SDS011;7175;51.978;5.330;2023-07-13T12:50:30;20.53;;;18.83;;
14187;SDS011;7175;51.978;5.330;2023-07-13T12:53:05;20.93;;;19.13;;
14187;SDS011;7175;51.978;5.330;2023-07-13T12:55:41;20.70;;;18.90;;
14187;SDS011;7175;51.978;5.330;2023-07-13T12:58:13;20.53;;;18.80;;
14187;SDS011;7175;51.978;5.330;2023-07-13T13:00:56;21.03;;;19.23;;
14187;SDS011;7175;51.978;5.330;2023-07-13T13:03:28;20.97;;;19.17;;
14187;SDS011;7175;51.978;5.330;2023-07-13T13:06:17;20.93;;;19.17;;
14187;SDS011;7175;51.978;5.330;2023-07-13T13:08:50;21.20;;;19.40;;
14187;SDS011;7175;51.978;5.330;2023-07-13T13:11:21;21.20;;;19.50;;
14187;SDS011;7175;51.978;5.330;2023-07-13T13:13:52;21.33;;;19.60;;
14187;SDS011;7175;51.978;5.330;2023-07-13T13:16:29;21.30;;;19.60;;
14187;SDS011;7175;51.978;5.330;2023-07-13T13:19:05;21.87;;;19.97;;
14187;SDS011;7175;51.978;5.330;2023-07-13T13:21:44;21.50;;;19.70;;
14187;SDS011;7175;51.978;5.330;2023-07-13T13:24:15;21.67;;;19.87;;
14187;SDS011;7175;51.978;5.330;2023-07-13T13:26:44;20.90;;;19.10;;
14187;SDS011;7175;51.978;5.330;2023-07-13T13:29:21;20.70;;;18.90;;
14187;SDS011;7175;51.978;5.330;2023-07-13T13:31:51;21.37;;;19.57;;
14187;SDS011;7175;51.978;5.330;2023-07-13T13:34:22;21.20;;;19.40;;
14187;SDS011;7175;51.978;5.330;2023-07-13T13:36:53;20.67;;;18.87;;
14187;SDS011;7175;51.978;5.330;2023-07-13T13:39:28;20.77;;;19.00;;
14187;SDS011;7175;51.978;5.330;2023-07-13T13:42:08;21.60;;;19.80;;
14187;SDS011;7175;51.978;5.330;2023-07-13T13:44:47;21.13;;;19.33;;
14187;SDS011;7175;51.978;5.330;2023-07-13T13:47:24;20.73;;;18.97;;
14187;SDS011;7175;51.978;5.330;2023-07-13T13:49:58;20.67;;;18.97;;
14187;SDS011;7175;51.978;5.330;2023-07-13T13:52:31;20.23;;;18.57;;
14187;SDS011;7175;51.978;5.330;2023-07-13T13:55:01;20.63;;;18.93;;
14187;SDS011;7175;51.978;5.330;2023-07-13T13:57:29;20.50;;;18.80;;
14187;SDS011;7175;51.978;5.330;2023-07-13T13:59:57;21.10;;;19.30;;
14187;SDS011;7175;51.978;5.330;2023-07-13T14:02:26;20.63;;;18.93;;
14187;SDS011;7175;51.978;5.330;2023-07-13T14:04:58;20.70;;;19.00;;
14187;SDS011;7175;51.978;5.330;2023-07-13T14:07:28;20.03;;;18.43;;
14187;SDS011;7175;51.978;5.330;2023-07-13T14:09:58;20.63;;;18.93;;
14187;SDS011;7175;51.978;5.330;2023-07-13T14:12:27;20.47;;;18.77;;
14187;SDS011;7175;51.978;5.330;2023-07-13T14:14:56;19.93;;;18.23;;
14187;SDS011;7175;51.978;5.330;2023-07-13T14:17:25;19.80;;;18.10;;
14187;SDS011;7175;51.978;5.330;2023-07-13T14:19:55;19.70;;;18.00;;
14187;SDS011;7175;51.978;5.330;2023-07-13T14:22:24;19.90;;;18.20;;
14187;SDS011;7175;51.978;5.330;2023-07-13T14:24:54;20.03;;;18.33;;
14187;SDS011;7175;51.978;5.330;2023-07-13T14:27:24;20.00;;;18.30;;
14187;SDS011;7175;51.978;5.330;2023-07-13T14:29:52;20.27;;;18.57;;
14187;SDS011;7175;51.978;5.330;2023-07-13T14:32:20;19.97;;;18.30;;
14187;SDS011;7175;51.978;5.330;2023-07-13T14:34:48;20.57;;;18.87;;
14187;SDS011;7175;51.978;5.330;2023-07-13T14:37:18;19.50;;;17.90;;
14187;SDS011;7175;51.978;5.330;2023-07-13T14:39:46;20.13;;;18.43;;
14187;SDS011;7175;51.978;5.330;2023-07-13T14:42:19;20.50;;;18.80;;
14187;SDS011;7175;51.978;5.330;2023-07-13T14:44:47;20.63;;;18.93;;
14187;SDS011;7175;51.978;5.330;2023-07-13T14:47:15;20.57;;;18.87;;
14187;SDS011;7175;51.978;5.330;2023-07-13T14:49:43;20.97;;;19.27;;
14187;SDS011;7175;51.978;5.330;2023-07-13T14:52:15;21.30;;;19.50;;
14187;SDS011;7175;51.978;5.330;2023-07-13T14:54:44;21.00;;;19.20;;
14187;SDS011;7175;51.978;5.330;2023-07-13T14:57:14;21.37;;;19.57;;
14187;SDS011;7175;51.978;5.330;2023-07-13T14:59:44;21.53;;;19.73;;